createdAt,value
2019-06-08T00:10:03.935Z,3.29
2019-06-08T00:21:06.034Z,3.29
2019-06-08T00:32:06.446Z,3.29
2019-06-08T00:43:04.449Z,3.28
2019-06-08T00:54:05.116Z,3.28
2019-06-08T01:05:08.892Z,3.28
2019-06-08T01:16:05.493Z,3.28
2019-06-08T01:27:07.949Z,3.27
2019-06-08T01:38:08.129Z,3.27
2019-06-08T01:49:10.166Z,3.27
2019-06-08T02:00:34.767Z,3.27
2019-06-08T02:11:22.039Z,3.26
2019-06-08T02:22:22.129Z,3.26
2019-06-08T02:33:20.470Z,3.26
2019-06-08T02:44:19.564Z,3.26
2019-06-08T02:55:21.317Z,3.25
2019-06-08T03:06:19.692Z,3.25
2019-06-08T03:17:19.045Z,3.25
2019-06-08T03:28:18.148Z,3.25
2019-06-08T03:39:18.450Z,3.25
2019-06-08T03:50:16.207Z,3.25
2019-06-08T04:01:14.197Z,3.25
2019-06-08T04:12:12.741Z,3.25
2019-06-08T04:23:11.083Z,3.25
2019-06-08T04:34:10.485Z,3.26
2019-06-08T04:45:08.400Z,3.26
2019-06-08T04:56:11.094Z,3.26
2019-06-08T05:07:10.939Z,3.27
2019-06-08T05:18:07.851Z,3.28
2019-06-08T05:29:08.071Z,3.28
2019-06-08T05:40:10.470Z,3.29
2019-06-08T05:51:07.655Z,3.29
2019-06-08T06:02:08.533Z,3.30
2019-06-08T06:13:04.681Z,3.31
2019-06-08T06:24:04.433Z,3.32
2019-06-08T06:35:05.810Z,3.33
2019-06-08T06:46:03.816Z,3.33
2019-06-08T06:57:06.158Z,3.34
2019-06-08T07:08:10.247Z,3.35
2019-06-08T07:19:12.330Z,3.36
2019-06-08T07:30:16.761Z,3.37
2019-06-08T07:41:16.449Z,3.37
2019-06-08T07:52:14.172Z,3.38
2019-06-08T08:03:12.512Z,3.39
2019-06-08T08:14:10.034Z,3.39
2019-06-08T08:25:11.239Z,3.40
2019-06-08T08:36:10.779Z,3.41
2019-06-08T08:47:07.836Z,3.42
2019-06-08T08:58:11.977Z,3.43
2019-06-08T09:09:11.375Z,3.44
2019-06-08T09:20:15.887Z,3.41
2019-06-08T09:31:21.868Z,3.39
2019-06-08T09:42:23.184Z,3.39
2019-06-08T09:53:28.532Z,3.39
2019-06-08T10:04:31.501Z,3.39
2019-06-08T10:15:29.897Z,3.38
2019-06-08T10:26:27.988Z,3.40
2019-06-08T10:37:31.115Z,3.39
2019-06-08T10:48:31.253Z,3.38
2019-06-08T10:59:29.749Z,3.38
2019-06-08T11:10:37.278Z,3.39
2019-06-08T11:21:39.631Z,3.39
2019-06-08T11:32:38.326Z,3.38
2019-06-08T11:43:38.010Z,3.38
2019-06-08T11:54:40.992Z,3.37
2019-06-08T12:05:42.339Z,3.41
2019-06-08T12:16:43.632Z,3.41
2019-06-08T12:27:45.074Z,3.39
2019-06-08T12:38:49.038Z,3.39
2019-06-08T12:49:48.899Z,3.38
2019-06-08T13:00:53.271Z,3.39
2019-06-08T13:11:59.428Z,3.38
2019-06-08T13:23:00.454Z,3.38
2019-06-08T13:34:07.812Z,3.38
2019-06-08T13:45:08.469Z,3.38
2019-06-08T13:56:02.535Z,3.37
2019-06-08T14:07:09.170Z,3.41
2019-06-08T14:18:08.492Z,3.39
2019-06-08T14:29:09.511Z,3.39
2019-06-08T14:40:10.682Z,3.39
2019-06-08T14:51:10.721Z,3.38
2019-06-08T15:02:13.410Z,3.41
2019-06-08T15:13:15.494Z,3.43
2019-06-08T15:24:18.392Z,3.41
2019-06-08T15:35:21.121Z,3.40
2019-06-08T15:46:18.370Z,3.39
2019-06-08T15:57:22.945Z,3.39
2019-06-08T16:08:25.934Z,3.39
2019-06-08T16:19:23.369Z,3.40
2019-06-08T16:30:24.505Z,3.39
2019-06-08T16:41:29.809Z,3.39
2019-06-08T16:52:30.707Z,3.38
2019-06-08T17:03:28.736Z,3.39
2019-06-08T17:14:25.236Z,3.39
2019-06-08T17:25:26.577Z,3.39
2019-06-08T17:36:27.197Z,3.39
2019-06-08T17:47:28.493Z,3.39
2019-06-08T17:58:29.937Z,3.39
2019-06-08T18:09:33.846Z,3.38
2019-06-08T18:20:32.143Z,3.37
2019-06-08T18:31:31.101Z,3.37
2019-06-08T18:42:29.346Z,3.37
2019-06-08T18:53:30.840Z,3.36
2019-06-08T19:04:31.938Z,3.36
2019-06-08T19:15:31.736Z,3.36
2019-06-08T19:26:28.213Z,3.36
2019-06-08T19:37:32.808Z,3.35
2019-06-08T19:48:42.747Z,3.33
2019-06-08T19:59:47.569Z,3.34
2019-06-08T20:10:50.794Z,3.34
2019-06-08T20:21:51.662Z,3.34
2019-06-08T20:32:52.434Z,3.34
2019-06-08T20:43:54.741Z,3.33
2019-06-08T20:54:58.085Z,3.33
2019-06-08T21:06:01.212Z,3.33
2019-06-08T21:17:00.054Z,3.32
2019-06-08T21:28:00.698Z,3.32
2019-06-08T21:39:03.958Z,3.32
2019-06-08T21:50:05.204Z,3.32
2019-06-08T22:01:07.422Z,3.32
2019-06-08T22:12:08.781Z,3.31
2019-06-08T22:23:11.352Z,3.31
2019-06-08T22:34:17.491Z,3.31
2019-06-08T22:45:19.710Z,3.31
2019-06-08T22:56:19.798Z,3.31
2019-06-08T23:07:29.145Z,3.30
2019-06-08T23:18:26.081Z,3.30
2019-06-08T23:29:27.364Z,3.30
2019-06-08T23:40:31.113Z,3.30
2019-06-08T23:51:32.686Z,3.30
